< < Back
Terminal Aerodrome Forecast


Current Version              Previous Versions:   1  2  3  4  5  6  7  8  9  

Terminal Aerodrome Forecast

327
FTUS44 KBMX 261736
TAFTCL
TAF
KTCL 261736Z 2618/2718 08006KT P6SM VCSH SCT050 SCT250
     FM270200 00000KT P6SM FEW120
     FM271400 11004KT P6SM SCT090=



Latest METAR

007
SAUS70 KWBC 270100 RRB
MTRTCL
METAR KTCL 270053Z 36007KT 10SM CLR 28/24 A3002 RMK AO2 SLP162
T02780239


USA.gov is the U.S. government's official web portal to all federal, state and local government web resources and services.